Time;durP1;ratioP1;P1;durP2;ratioP2;P2;SDS_P1;SDS_P2;PMS_P1;PMS_P2;Temp;Humidity;BMP_temperature;BMP_pressure;BME280_temperature;BME280_humidity;BME280_pressure;Samples;Min_cycle;Max_cycle;Signal;HPM_P1;HPM_P2
2023/04/30 00:01:25;;;;;;;12.07;4.17;;;;;;;5.98;100.00;102341.03;5020733;28;20600;-71
2023/04/30 00:03:50;;;;;;;9.43;3.50;;;;;;;5.92;100.00;102341.53;5019978;28;20244;-70
2023/04/30 00:06:16;;;;;;;13.83;4.03;;;;;;;5.88;100.00;102338.69;5024398;28;20698;-71
2023/04/30 00:08:41;;;;;;;12.93;3.47;;;;;;;5.88;100.00;102342.09;5007248;28;20321;-69
2023/04/30 00:11:07;;;;;;;12.00;3.73;;;;;;;5.89;100.00;102337.91;5022458;28;20215;-67
2023/04/30 00:13:32;;;;;;;8.43;3.70;;;;;;;5.86;100.00;102343.69;5022260;28;20191;-71
2023/04/30 00:15:58;;;;;;;11.93;3.87;;;;;;;5.85;100.00;102348.69;5019358;28;20230;-70
2023/04/30 00:18:23;;;;;;;12.50;3.63;;;;;;;5.77;100.00;102345.63;5024795;28;20255;-68
2023/04/30 00:20:50;;;;;;;9.70;3.57;;;;;;;5.77;100.00;102349.81;5020365;28;20818;-70
2023/04/30 00:23:16;;;;;;;9.07;3.40;;;;;;;5.73;100.00;102350.41;5020916;28;20194;-71
2023/04/30 00:25:41;;;;;;;12.53;4.10;;;;;;;5.68;100.00;102347.59;5022209;28;20195;-69
2023/04/30 00:28:06;;;;;;;14.07;3.90;;;;;;;5.67;100.00;102355.13;5021488;28;20354;-70
2023/04/30 00:30:32;;;;;;;9.80;3.73;;;;;;;5.65;100.00;102356.66;5024598;28;20241;-69
2023/04/30 00:32:58;;;;;;;8.73;3.37;;;;;;;5.60;100.00;102360.56;5007411;28;20752;-69
2023/04/30 00:35:23;;;;;;;9.97;3.23;;;;;;;5.61;100.00;102354.72;5023954;28;20198;-70
2023/04/30 00:37:49;;;;;;;10.37;3.87;;;;;;;5.58;100.00;102355.38;5020760;28;20277;-70
2023/04/30 00:40:15;;;;;;;9.80;3.70;;;;;;;5.58;100.00;102359.59;5019843;28;20209;-70
2023/04/30 00:42:41;;;;;;;7.03;3.43;;;;;;;5.54;100.00;102361.09;5020582;28;20212;-70
2023/04/30 00:45:07;;;;;;;11.20;3.73;;;;;;;5.52;100.00;102362.63;5002848;28;20676;-70
2023/04/30 00:47:32;;;;;;;7.53;3.80;;;;;;;5.51;100.00;102365.06;5010017;28;20210;-69
2023/04/30 00:49:58;;;;;;;13.53;4.33;;;;;;;5.49;100.00;102364.09;5019831;28;20221;-68
2023/04/30 00:52:24;;;;;;;11.17;3.50;;;;;;;5.49;100.00;102365.00;5018912;28;20219;-69
2023/04/30 00:54:52;;;;;;;14.43;4.10;;;;;;;5.43;100.00;102369.66;5013726;28;20233;-70
2023/04/30 00:57:19;;;;;;;10.33;3.70;;;;;;;5.37;100.00;102371.81;5005915;28;20714;-69
2023/04/30 00:59:45;;;;;;;10.70;3.67;;;;;;;5.34;100.00;102371.59;5024566;28;20214;-70
2023/04/30 01:02:12;;;;;;;10.57;3.73;;;;;;;5.32;100.00;102377.38;5009184;28;20253;-70
2023/04/30 01:04:38;;;;;;;6.83;3.87;;;;;;;5.33;100.00;102384.19;5019748;28;20205;-68
2023/04/30 01:07:04;;;;;;;14.07;4.13;;;;;;;5.30;100.00;102384.03;5020108;28;20210;-68
2023/04/30 01:09:30;;;;;;;13.57;3.90;;;;;;;5.29;100.00;102383.13;5020424;28;20214;-69
2023/04/30 01:12:08;;;;;;;10.03;3.97;;;;;;;5.25;100.00;102383.72;5003699;28;20210;-68
2023/04/30 01:14:52;;;;;;;11.30;3.90;;;;;;;5.23;100.00;102392.00;5021961;28;20205;-67
2023/04/30 01:17:34;;;;;;;9.80;3.57;;;;;;;5.22;100.00;102382.63;5007225;28;20281;-68
2023/04/30 01:20:00;;;;;;;11.03;3.77;;;;;;;5.20;100.00;102382.53;5022192;28;20222;-68
2023/04/30 01:22:36;;;;;;;9.63;3.97;;;;;;;5.19;100.00;102390.94;5009185;28;20179;-70
2023/04/30 01:25:17;;;;;;;7.77;3.77;;;;;;;5.16;100.00;102389.88;5019328;28;20344;-70
2023/04/30 01:28:04;;;;;;;8.87;3.83;;;;;;;5.04;100.00;102395.00;5007360;28;20198;-70
2023/04/30 01:30:31;;;;;;;11.50;3.47;;;;;;;5.01;100.00;102399.00;5020016;28;20229;-69
2023/04/30 01:32:57;;;;;;;12.13;3.90;;;;;;;5.02;100.00;102403.31;5011539;28;20194;-69
2023/04/30 01:35:48;;;;;;;12.20;4.03;;;;;;;4.99;100.00;102404.00;5007838;28;20194;-68
2023/04/30 01:38:26;;;;;;;11.67;4.20;;;;;;;4.98;100.00;102403.88;5015427;28;20282;-70
2023/04/30 01:41:17;;;;;;;14.90;4.27;;;;;;;4.89;100.00;102406.69;5017786;28;20213;-69
2023/04/30 01:44:03;;;;;;;10.73;4.60;;;;;;;4.84;100.00;102412.22;5022857;28;20200;-69
2023/04/30 01:46:30;;;;;;;14.20;3.83;;;;;;;4.79;100.00;102409.38;5023743;28;20222;-69
2023/04/30 01:49:04;;;;;;;7.17;3.73;;;;;;;4.62;100.00;102411.56;5006395;28;20228;-70
2023/04/30 01:51:41;;;;;;;11.40;3.70;;;;;;;4.63;100.00;102416.72;5007095;28;20218;-68
2023/04/30 01:54:33;;;;;;;10.47;4.10;;;;;;;4.62;100.00;102420.06;5020176;28;20811;-70
2023/04/30 01:57:11;;;;;;;11.03;3.93;;;;;;;4.53;100.00;102428.66;5017353;28;20203;-69
2023/04/30 01:59:38;;;;;;;11.03;4.10;;;;;;;4.54;100.00;102425.34;5005586;28;20221;-70
2023/04/30 02:02:05;;;;;;;13.03;3.67;;;;;;;4.48;100.00;102425.84;4998651;28;20193;-70
2023/04/30 02:04:31;;;;;;;8.50;4.00;;;;;;;4.44;100.00;102422.97;5008428;28;20233;-70
2023/04/30 02:06:57;;;;;;;10.50;4.40;;;;;;;4.35;100.00;102433.38;5005627;28;20262;-68
2023/04/30 02:09:23;;;;;;;9.40;3.97;;;;;;;4.34;100.00;102433.25;5008437;28;20217;-68
2023/04/30 02:11:49;;;;;;;7.80;3.67;;;;;;;4.23;100.00;102439.25;4989712;28;20206;-69
2023/04/30 02:14:14;;;;;;;12.63;3.90;;;;;;;4.17;100.00;102434.63;5017209;28;20229;-68
2023/04/30 02:16:40;;;;;;;10.43;3.97;;;;;;;4.15;100.00;102436.16;5003401;28;20191;-69
2023/04/30 02:19:06;;;;;;;7.43;3.73;;;;;;;4.13;100.00;102437.72;5020233;28;20214;-69
2023/04/30 02:21:31;;;;;;;11.23;4.33;;;;;;;4.08;100.00;102433.97;5007651;28;20186;-68
2023/04/30 02:23:57;;;;;;;14.97;4.20;;;;;;;4.04;100.00;102437.06;5018268;28;20727;-70
2023/04/30 02:26:22;;;;;;;8.83;3.97;;;;;;;3.97;100.00;102444.13;5012039;28;20195;-69
2023/04/30 02:28:47;;;;;;;14.93;5.00;;;;;;;3.98;100.00;102449.31;5016018;28;20186;-69
2023/04/30 02:31:13;;;;;;;12.27;4.23;;;;;;;3.89;100.00;102442.69;5021618;28;20597;-69
2023/04/30 02:33:38;;;;;;;7.07;4.33;;;;;;;3.88;100.00;102441.81;5021889;28;20197;-69
2023/04/30 02:36:04;;;;;;;12.03;4.67;;;;;;;3.86;100.00;102447.56;5021998;28;20194;-68
2023/04/30 02:38:30;;;;;;;11.47;4.50;;;;;;;3.80;100.00;102445.44;5025512;28;20202;-68
2023/04/30 02:40:55;;;;;;;11.00;4.43;;;;;;;3.74;100.00;102446.66;5019461;28;20193;-67
2023/04/30 02:43:21;;;;;;;12.20;4.40;;;;;;;3.70;100.00;102440.50;5023700;28;20194;-68
2023/04/30 02:45:47;;;;;;;9.47;4.37;;;;;;;3.78;100.00;102443.59;5000509;28;20213;-68
2023/04/30 02:48:12;;;;;;;12.47;4.30;;;;;;;3.84;100.00;102438.94;5027099;28;20243;-68
2023/04/30 02:50:38;;;;;;;12.00;4.70;;;;;;;3.85;100.00;102439.06;5025282;28;20263;-67
2023/04/30 02:53:04;;;;;;;13.27;4.27;;;;;;;3.92;100.00;102447.97;5009249;28;20608;-67
2023/04/30 02:55:30;;;;;;;13.17;4.50;;;;;;;3.94;100.00;102443.88;5009552;28;20186;-69
2023/04/30 02:57:55;;;;;;;10.83;4.60;;;;;;;3.94;100.00;102444.78;5024827;28;20198;-69
2023/04/30 03:00:20;;;;;;;14.07;4.80;;;;;;;3.95;100.00;102445.69;5027011;28;20569;-68
2023/04/30 03:02:46;;;;;;;10.40;4.93;;;;;;;4.00;100.00;102447.75;5012983;28;20696;-69
2023/04/30 03:05:12;;;;;;;16.00;5.00;;;;;;;4.02;100.00;102441.16;5009929;28;20560;-68
2023/04/30 03:07:38;;;;;;;11.80;4.80;;;;;;;4.01;100.00;102446.09;5006212;28;20238;-68
2023/04/30 03:10:04;;;;;;;11.43;5.00;;;;;;;4.02;100.00;102451.28;5006872;28;20266;-68
2023/04/30 03:12:30;;;;;;;11.77;4.70;;;;;;;4.00;100.00;102449.41;5020733;28;20616;-71
2023/04/30 03:14:55;;;;;;;18.17;5.10;;;;;;;4.01;100.00;102451.16;5024199;28;20306;-69
2023/04/30 03:17:21;;;;;;;11.63;4.73;;;;;;;4.00;100.00;102450.28;5022067;28;20190;-69
2023/04/30 03:19:46;;;;;;;12.67;4.73;;;;;;;3.99;100.00;102451.06;5023416;28;20219;-71
2023/04/30 03:22:11;;;;;;;12.73;4.97;;;;;;;3.95;100.00;102448.22;5022940;28;20231;-68
2023/04/30 03:24:37;;;;;;;13.27;5.47;;;;;;;3.90;100.00;102446.97;5003076;28;20198;-70
2023/04/30 03:27:02;;;;;;;16.00;4.87;;;;;;;3.92;100.00;102458.13;5016184;28;20199;-71
2023/04/30 03:29:28;;;;;;;12.80;4.87;;;;;;;3.90;100.00;102455.47;5027874;28;20615;-70
2023/04/30 03:31:53;;;;;;;10.33;5.00;;;;;;;3.91;100.00;102458.91;5024277;28;20210;-69
2023/04/30 03:34:19;;;;;;;11.67;4.83;;;;;;;3.91;100.00;102463.97;5019462;28;20202;-71
2023/04/30 03:36:44;;;;;;;14.00;4.70;;;;;;;3.83;100.00;102458.34;5018665;28;20577;-68
2023/04/30 03:39:10;;;;;;;13.00;4.87;;;;;;;3.79;100.00;102448.75;5016994;28;20210;-69
2023/04/30 03:41:36;;;;;;;13.83;4.93;;;;;;;3.81;100.00;102453.91;5009255;28;20237;-69
2023/04/30 03:44:01;;;;;;;12.93;5.10;;;;;;;3.80;100.00;102450.53;5015340;28;20199;-69
2023/04/30 03:46:27;;;;;;;13.43;4.13;;;;;;;3.80;100.00;102469.88;5008287;28;20274;-69
2023/04/30 03:48:53;;;;;;;11.50;4.90;;;;;;;3.78;100.00;102469.78;5012994;28;20211;-69
2023/04/30 03:51:20;;;;;;;12.07;4.57;;;;;;;3.76;100.00;102471.31;5020574;28;21686;-70
2023/04/30 03:53:46;;;;;;;15.90;4.87;;;;;;;3.73;100.00;102472.75;5005565;28;20214;-69
2023/04/30 03:56:13;;;;;;;10.03;5.20;;;;;;;3.61;100.00;102469.31;5007824;28;20222;-69
2023/04/30 03:58:38;;;;;;;14.83;4.80;;;;;;;3.61;100.00;102466.78;5018856;28;20182;-69
2023/04/30 04:01:04;;;;;;;14.37;5.37;;;;;;;3.62;100.00;102476.16;5006125;28;20253;-67
2023/04/30 04:03:30;;;;;;;9.83;4.63;;;;;;;3.58;100.00;102475.06;5007150;28;20195;-68
2023/04/30 04:05:55;;;;;;;13.23;4.40;;;;;;;3.50;100.00;102473.59;5018965;28;20195;-69
2023/04/30 04:08:21;;;;;;;14.77;4.93;;;;;;;3.52;100.00;102476.25;5007055;28;20212;-68
2023/04/30 04:10:46;;;;;;;10.77;5.00;;;;;;;3.49;100.00;102483.66;5004029;28;20223;-69
2023/04/30 04:13:12;;;;;;;10.47;4.23;;;;;;;3.50;100.00;102485.41;5006608;28;20253;-69
2023/04/30 04:15:37;;;;;;;15.23;5.10;;;;;;;3.44;100.00;102479.88;5010197;28;20202;-69
2023/04/30 04:18:03;;;;;;;8.30;4.57;;;;;;;3.46;100.00;102483.41;5005016;28;20285;-70
2023/04/30 04:20:29;;;;;;;12.03;4.40;;;;;;;3.38;100.00;102484.47;5012421;28;20348;-68
2023/04/30 04:22:55;;;;;;;13.20;4.70;;;;;;;3.36;100.00;102484.38;5008457;28;20317;-69
2023/04/30 04:25:23;;;;;;;15.17;5.10;;;;;;;3.43;100.00;102488.22;5010877;28;20194;-69
2023/04/30 04:27:49;;;;;;;8.33;4.70;;;;;;;3.41;100.00;102482.19;5006787;28;20715;-68
2023/04/30 04:30:15;;;;;;;10.10;4.13;;;;;;;3.42;100.00;102491.53;5022716;28;20688;-68
2023/04/30 04:32:47;;;;;;;9.10;4.63;;;;;;;3.38;100.00;102495.50;5006325;28;20214;-68
2023/04/30 04:35:17;;;;;;;12.93;5.17;;;;;;;3.44;100.00;102502.66;5008446;28;20205;-69
2023/04/30 04:37:43;;;;;;;9.60;4.50;;;;;;;3.47;100.00;102502.88;5005267;28;20214;-70
2023/04/30 04:40:11;;;;;;;12.00;4.90;;;;;;;3.53;100.00;102493.19;5016182;28;20221;-68
2023/04/30 04:42:37;;;;;;;11.27;4.90;;;;;;;3.53;100.00;102501.69;5009533;28;20281;-68
2023/04/30 04:45:05;;;;;;;11.87;5.07;;;;;;;3.65;100.00;102502.59;5013729;28;20203;-68
2023/04/30 04:47:31;;;;;;;14.97;5.50;;;;;;;3.74;100.00;102509.97;5008371;28;20601;-68
2023/04/30 04:49:57;;;;;;;12.43;5.67;;;;;;;3.81;100.00;102502.94;5003299;28;20223;-69
2023/04/30 04:52:23;;;;;;;10.07;5.37;;;;;;;3.87;100.00;102510.97;5022606;28;20214;-70
2023/04/30 04:54:50;;;;;;;11.20;5.37;;;;;;;3.97;100.00;102510.00;5001448;28;20750;-67
2023/04/30 04:57:16;;;;;;;10.07;5.30;;;;;;;4.03;100.00;102518.03;4986537;28;20194;-69
2023/04/30 04:59:41;;;;;;;15.23;5.60;;;;;;;4.09;100.00;102511.75;5008019;28;20214;-69
2023/04/30 05:02:07;;;;;;;13.30;5.83;;;;;;;4.18;100.00;102521.69;5019760;28;20222;-68
2023/04/30 05:04:32;;;;;;;12.83;6.33;;;;;;;4.28;100.00;102519.88;5011320;28;20195;-69
2023/04/30 05:06:58;;;;;;;13.60;6.03;;;;;;;4.45;100.00;102533.75;5018706;28;20209;-69
2023/04/30 05:09:23;;;;;;;14.40;5.50;;;;;;;4.56;100.00;102531.19;5017546;28;20306;-68
2023/04/30 05:11:49;;;;;;;18.47;6.10;;;;;;;4.71;100.00;102539.00;5007366;28;20557;-69
2023/04/30 05:14:15;;;;;;;13.93;5.90;;;;;;;4.82;100.00;102531.38;4990905;28;20186;-69
2023/04/30 05:16:40;;;;;;;14.47;6.23;;;;;;;4.94;100.00;102529.69;5008532;28;20217;-69
2023/04/30 05:19:08;;;;;;;16.57;6.20;;;;;;;5.05;100.00;102536.38;5022839;28;20373;-68
2023/04/30 05:21:34;;;;;;;12.90;5.73;;;;;;;5.20;100.00;102532.31;5019963;28;20236;-68
2023/04/30 05:24:00;;;;;;;10.33;5.30;;;;;;;5.35;100.00;102529.94;5013517;28;20191;-68
2023/04/30 05:26:25;;;;;;;14.07;5.63;;;;;;;5.46;100.00;102537.50;5020263;28;20190;-69
2023/04/30 05:28:51;;;;;;;14.97;5.30;;;;;;;5.60;100.00;102541.84;5005348;28;20210;-70
2023/04/30 05:31:17;;;;;;;10.70;5.23;;;;;;;5.74;100.00;102540.19;5020391;28;20295;-69
2023/04/30 05:33:42;;;;;;;16.30;5.50;;;;;;;5.87;100.00;102547.88;5023835;28;20190;-69
2023/04/30 05:36:09;;;;;;;10.70;5.53;;;;;;;5.99;100.00;102546.16;5019485;28;20246;-70
2023/04/30 05:38:35;;;;;;;11.23;5.37;;;;;;;6.09;100.00;102545.97;5017289;28;20283;-69
2023/04/30 05:41:00;;;;;;;11.83;5.33;;;;;;;6.21;100.00;102547.63;5021373;28;20261;-68
2023/04/30 05:43:26;;;;;;;13.40;5.30;;;;;;;6.33;100.00;102545.88;5020930;28;20377;-70
2023/04/30 05:45:51;;;;;;;11.93;5.30;;;;;;;6.46;100.00;102540.78;5018425;28;20186;-69
2023/04/30 05:48:16;;;;;;;14.00;5.47;;;;;;;6.55;100.00;102555.72;5018690;28;20766;-69
2023/04/30 05:50:42;;;;;;;12.47;5.67;;;;;;;6.68;100.00;102553.16;5024645;28;20695;-69
2023/04/30 05:53:07;;;;;;;9.20;4.90;;;;;;;6.76;100.00;102559.59;5015771;28;20241;-69
2023/04/30 05:55:33;;;;;;;13.33;5.00;;;;;;;6.87;100.00;102566.25;5017339;28;20571;-69
2023/04/30 05:57:58;;;;;;;11.60;4.70;;;;;;;6.95;100.00;102563.38;5014410;28;20281;-69
2023/04/30 06:00:24;;;;;;;16.90;5.70;;;;;;;7.11;100.00;102570.28;5021621;28;20210;-69
2023/04/30 06:02:50;;;;;;;11.70;5.03;;;;;;;7.29;100.00;102561.19;5007754;28;20656;-68
2023/04/30 06:05:15;;;;;;;14.47;5.07;;;;;;;7.45;100.00;102554.56;5023187;28;20679;-69
2023/04/30 06:07:41;;;;;;;14.67;5.53;;;;;;;7.48;100.00;102552.19;5016875;28;20186;-70
2023/04/30 06:10:08;;;;;;;14.57;5.20;;;;;;;7.59;100.00;102538.41;5016001;28;20594;-68
2023/04/30 06:12:33;;;;;;;9.43;4.90;;;;;;;7.75;100.00;102540.19;5014867;28;20225;-67
2023/04/30 06:14:59;;;;;;;13.40;4.47;;;;;;;7.82;100.00;102516.78;5012335;28;20253;-70
2023/04/30 06:17:24;;;;;;;12.00;4.40;;;;;;;7.99;100.00;102504.22;5021680;28;21012;-68
2023/04/30 06:19:50;;;;;;;9.43;4.97;;;;;;;8.14;100.00;102506.72;5019606;28;20214;-69
2023/04/30 06:22:15;;;;;;;9.43;3.60;;;;;;;8.30;100.00;102483.84;5018713;28;20187;-69
2023/04/30 06:24:41;;;;;;;10.93;4.37;;;;;;;8.44;100.00;102458.25;5022015;28;20198;-68
2023/04/30 06:27:06;;;;;;;10.93;4.47;;;;;;;8.49;100.00;102433.88;5016213;28;20329;-69
2023/04/30 06:29:32;;;;;;;10.13;4.77;;;;;;;8.61;100.00;102442.16;5022575;28;20214;-70
2023/04/30 06:31:57;;;;;;;9.87;4.50;;;;;;;8.80;100.00;102455.09;5025960;28;20229;-68
2023/04/30 06:34:23;;;;;;;7.23;4.00;;;;;;;8.89;100.00;102395.97;5008874;28;20289;-69
2023/04/30 06:36:48;;;;;;;10.60;3.87;;;;;;;8.98;100.00;102355.56;5018443;28;20197;-68
2023/04/30 06:39:15;;;;;;;16.53;4.20;;;;;;;9.00;100.00;102287.53;5020314;28;20275;-68
2023/04/30 06:41:40;;;;;;;8.60;3.80;;;;;;;9.15;100.00;102267.81;5024300;28;20190;-70
2023/04/30 06:44:08;;;;;;;10.43;3.70;;;;;;;9.39;100.00;102286.88;5004111;28;20202;-69
2023/04/30 06:46:34;;;;;;;13.33;4.13;;;;;;;9.58;100.00;102290.38;5007082;28;20190;-69
2023/04/30 06:48:59;;;;;;;10.07;4.43;;;;;;;9.74;100.00;102276.59;5018097;28;20212;-69
2023/04/30 06:51:25;;;;;;;7.87;3.90;;;;;;;9.80;100.00;102241.06;5024063;28;20559;-69
2023/04/30 06:53:51;;;;;;;10.60;4.20;;;;;;;9.90;100.00;102220.22;5018640;28;20240;-68
2023/04/30 06:56:17;;;;;;;10.77;4.17;;;;;;;10.18;100.00;102251.34;5015706;28;20591;-68
2023/04/30 06:58:42;;;;;;;10.33;3.70;;;;;;;10.22;100.00;102154.28;5022426;28;20212;-69
2023/04/30 07:01:08;;;;;;;11.30;4.13;;;;;;;10.00;100.00;102159.25;5019828;28;20186;-70
2023/04/30 07:03:34;;;;;;;10.80;4.30;;;;;;;10.22;100.00;102105.63;5017205;28;20194;-70
2023/04/30 07:05:59;;;;;;;8.87;3.53;;;;;;;10.20;100.00;102186.63;5019372;28;20226;-72
2023/04/30 07:08:25;;;;;;;11.80;3.80;;;;;;;10.57;100.00;102163.41;5005977;28;20284;-68
2023/04/30 07:10:50;;;;;;;7.53;4.10;;;;;;;11.19;100.00;102159.03;5015006;28;20222;-70
2023/04/30 07:13:16;;;;;;;8.90;3.97;;;;;;;11.61;100.00;102089.69;5015136;28;20808;-70
2023/04/30 07:15:42;;;;;;;7.20;3.40;;;;;;;11.87;100.00;102026.44;5017385;28;20202;-69
2023/04/30 07:18:08;;;;;;;8.90;3.00;;;;;;;11.80;79.70;101860.25;5020941;28;20206;-70
2023/04/30 07:20:34;;;;;;;10.50;3.20;;;;;;;12.07;82.33;101856.81;5022173;28;20210;-70
2023/04/30 07:23:00;;;;;;;8.73;2.77;;;;;;;11.70;72.42;101797.50;5021461;28;20782;-70
2023/04/30 07:25:25;;;;;;;7.13;3.10;;;;;;;11.65;70.83;101799.06;5022697;28;20814;-70
2023/04/30 07:27:54;;;;;;;7.57;2.87;;;;;;;11.97;71.62;101817.97;5024640;28;20197;-67
2023/04/30 07:30:21;;;;;;;7.40;2.87;;;;;;;11.92;67.19;101799.91;5023818;28;20217;-69
2023/04/30 07:32:47;;;;;;;6.43;2.80;;;;;;;11.59;67.74;101857.91;5012321;28;20218;-68
2023/04/30 07:35:13;;;;;;;8.13;3.27;;;;;;;11.70;76.09;101954.03;5007976;28;20199;-68
2023/04/30 07:37:40;;;;;;;7.80;2.50;;;;;;;12.03;69.82;101929.41;5019252;28;20190;-70
2023/04/30 07:40:08;;;;;;;7.10;3.17;;;;;;;12.21;66.64;101935.13;5018504;28;20302;-69
2023/04/30 07:42:33;;;;;;;10.23;2.90;;;;;;;12.10;63.67;101936.50;5022301;28;20257;-70
2023/04/30 07:44:59;;;;;;;8.30;3.00;;;;;;;12.33;63.20;101950.03;5017904;28;20198;-70
2023/04/30 07:47:25;;;;;;;8.27;3.73;;;;;;;11.74;64.60;101970.38;5026623;28;20206;-69
2023/04/30 07:49:51;;;;;;;7.17;3.20;;;;;;;12.16;63.57;101964.94;5022774;28;20218;-69
2023/04/30 07:52:16;;;;;;;8.83;2.87;;;;;;;12.43;62.44;101967.44;5024330;28;20241;-70
2023/04/30 07:54:42;;;;;;;8.33;3.00;;;;;;;12.90;62.60;101983.44;5020906;28;20268;-70
2023/04/30 07:57:07;;;;;;;8.53;2.97;;;;;;;12.96;59.58;101962.16;5020025;28;20682;-69
2023/04/30 07:59:33;;;;;;;5.73;2.50;;;;;;;13.01;57.45;101952.03;5020362;28;21728;-70
2023/04/30 08:01:58;;;;;;;6.77;2.67;;;;;;;12.51;59.39;102007.97;5015818;28;21122;-69
2023/04/30 08:04:24;;;;;;;8.77;3.03;;;;;;;12.78;64.27;102072.19;5019074;28;20684;-70
2023/04/30 08:06:50;;;;;;;8.10;2.70;;;;;;;12.57;62.98;102062.13;5021131;28;20225;-70
2023/04/30 08:09:15;;;;;;;4.47;2.73;;;;;;;12.90;59.30;102027.13;5029542;28;20581;-71
2023/04/30 08:11:41;;;;;;;11.90;2.90;;;;;;;12.97;58.12;102020.50;5023770;28;20210;-71
2023/04/30 08:14:06;;;;;;;7.87;3.10;;;;;;;13.13;59.48;102050.09;5019346;28;20661;-71
2023/04/30 08:16:32;;;;;;;9.83;3.10;;;;;;;13.40;55.32;102031.13;4992371;28;20321;-70
2023/04/30 08:18:58;;;;;;;7.83;2.73;;;;;;;13.80;55.92;102046.81;5010391;28;21066;-69
2023/04/30 08:21:24;;;;;;;7.33;3.50;;;;;;;13.54;56.64;102076.13;5015709;28;20668;-71
2023/04/30 08:23:49;;;;;;;6.77;2.60;;;;;;;13.52;56.63;102085.53;5026131;28;20268;-71
2023/04/30 08:26:15;;;;;;;6.40;2.57;;;;;;;13.49;56.26;102102.59;5020644;28;20201;-71
2023/04/30 08:28:40;;;;;;;7.90;3.00;;;;;;;13.86;54.56;102088.16;5023424;28;20198;-72
2023/04/30 08:31:06;;;;;;;8.60;2.80;;;;;;;14.01;52.71;102083.41;5020275;28;20331;-72
2023/04/30 08:33:31;;;;;;;7.93;3.13;;;;;;;14.07;51.98;102098.13;5020233;28;20820;-72
2023/04/30 08:35:58;;;;;;;5.70;2.63;;;;;;;14.12;50.91;102215.03;5025395;28;20206;-73
2023/04/30 08:38:24;;;;;;;6.97;2.73;;;;;;;14.19;51.76;102273.66;5020438;28;20737;-71
2023/04/30 08:41:09;;;;;;;5.37;2.80;;;;;;;14.20;49.82;102263.41;5022553;28;20345;-71
2023/04/30 08:43:34;;;;;;;7.67;2.87;;;;;;;14.38;49.25;102265.63;5003188;28;20209;-72
2023/04/30 08:46:01;;;;;;;7.07;3.03;;;;;;;14.38;50.32;102281.97;5001525;28;20202;-71
2023/04/30 08:48:27;;;;;;;6.90;2.93;;;;;;;14.52;49.17;102262.59;5017780;28;20229;-71
2023/04/30 08:50:52;;;;;;;7.63;2.73;;;;;;;14.37;50.57;102272.47;5024679;28;20257;-72
2023/04/30 08:53:20;;;;;;;7.77;2.70;;;;;;;14.62;49.09;102266.25;5023718;28;20233;-69
2023/04/30 08:55:46;;;;;;;5.90;2.50;;;;;;;14.88;49.56;102285.84;5007128;28;20715;-70
2023/04/30 08:58:11;;;;;;;6.80;2.70;;;;;;;15.06;50.45;102292.31;5022443;28;20303;-71
2023/04/30 09:00:38;;;;;;;9.90;2.87;;;;;;;15.07;47.39;102264.81;5013771;28;20226;-71
2023/04/30 09:03:04;;;;;;;9.00;3.07;;;;;;;15.05;45.90;102266.50;5019209;28;20664;-71
2023/04/30 09:05:30;;;;;;;7.57;2.80;;;;;;;14.87;46.66;102291.84;5018151;28;20205;-70
2023/04/30 09:07:55;;;;;;;8.80;2.73;;;;;;;15.00;47.24;102304.19;5029662;28;20293;-69
2023/04/30 09:10:21;;;;;;;7.00;2.97;;;;;;;15.18;47.07;102308.09;5024056;28;20305;-70
2023/04/30 09:13:07;;;;;;;6.77;3.30;;;;;;;15.42;48.69;102323.34;5028225;28;20219;-71
2023/04/30 09:15:34;;;;;;;6.80;2.70;;;;;;;15.18;47.81;102309.81;5025515;28;20193;-71
2023/04/30 09:18:11;;;;;;;5.10;2.67;;;;;;;15.31;46.62;102302.41;5027666;28;20194;-71
2023/04/30 09:20:37;;;;;;;4.93;2.20;;;;;;;15.56;47.24;102306.47;5023679;28;20210;-72
2023/04/30 09:23:10;;;;;;;7.63;3.03;;;;;;;15.73;46.62;102293.09;5020229;28;20201;-69
2023/04/30 09:25:42;;;;;;;8.47;3.07;;;;;;;15.58;46.79;102294.44;5022731;28;20233;-70
2023/04/30 09:28:12;;;;;;;6.27;2.63;;;;;;;14.23;46.84;102314.16;5022132;28;20212;-71
2023/04/30 09:30:39;;;;;;;5.73;3.00;;;;;;;13.19;49.57;102385.53;5023714;28;20225;-70
2023/04/30 09:33:04;;;;;;;5.90;2.70;;;;;;;14.40;49.00;102385.97;5020303;28;20260;-68
2023/04/30 09:35:40;;;;;;;7.90;3.03;;;;;;;15.30;47.60;102346.25;5021848;28;20202;-72
2023/04/30 09:38:06;;;;;;;7.57;2.90;;;;;;;15.48;45.56;102298.53;5018010;28;20206;-71
2023/04/30 09:40:41;;;;;;;6.03;2.70;;;;;;;15.62;46.40;102315.22;5022894;28;20222;-71
2023/04/30 09:43:07;;;;;;;6.57;2.90;;;;;;;15.59;46.32;102307.41;5026671;28;20301;-69
2023/04/30 09:45:59;;;;;;;7.97;3.07;;;;;;;15.92;45.11;102297.78;5025122;28;20210;-71
2023/04/30 09:48:27;;;;;;;5.37;2.80;;;;;;;16.35;44.86;102296.97;5018234;28;20201;-69
2023/04/30 09:50:52;;;;;;;6.47;2.37;;;;;;;16.16;43.95;102306.03;5005038;28;20222;-71
2023/04/30 09:53:18;;;;;;;5.57;2.53;;;;;;;16.26;42.46;102278.69;5025726;28;20204;-71
2023/04/30 09:55:46;;;;;;;7.20;2.90;;;;;;;16.27;43.27;102289.06;5024560;28;20203;-72
2023/04/30 09:58:13;;;;;;;6.50;2.63;;;;;;;16.27;44.73;102314.03;5024744;28;20194;-72
2023/04/30 10:00:40;;;;;;;9.37;3.17;;;;;;;16.38;43.76;102305.63;5022639;28;20213;-72
2023/04/30 10:03:08;;;;;;;7.93;3.03;;;;;;;16.49;44.44;102314.50;5018665;28;20289;-70
2023/04/30 10:05:38;;;;;;;7.30;2.50;;;;;;;16.58;43.13;102291.38;5021283;28;20835;-69
2023/04/30 10:08:12;;;;;;;7.43;2.90;;;;;;;16.30;43.12;102298.59;5023528;28;20205;-71
2023/04/30 10:10:40;;;;;;;4.67;2.77;;;;;;;15.07;43.82;102301.81;5023042;28;21124;-71
2023/04/30 10:13:10;;;;;;;6.40;2.80;;;;;;;15.70;44.88;102342.06;5027113;28;20225;-71
2023/04/30 10:15:42;;;;;;;4.80;3.07;;;;;;;16.25;44.94;102339.00;5025836;28;20202;-71
2023/04/30 10:18:30;;;;;;;5.47;2.70;;;;;;;16.35;43.72;102296.97;5019567;28;20198;-72
2023/04/30 10:20:56;;;;;;;8.83;3.83;;;;;;;14.85;45.26;102327.91;5022622;28;20253;-71
2023/04/30 10:23:21;;;;;;;6.47;2.93;;;;;;;15.96;45.08;102340.06;5021493;28;20236;-71
2023/04/30 10:25:48;;;;;;;7.73;3.70;;;;;;;16.21;42.54;102276.00;5021874;28;20206;-72
2023/04/30 10:28:15;;;;;;;7.03;3.23;;;;;;;16.23;43.31;102287.25;5024194;28;20234;-72
2023/04/30 10:30:42;;;;;;;8.80;3.43;;;;;;;16.88;44.80;102328.16;5024447;28;20222;-69
2023/04/30 10:33:48;;;;;;;6.33;3.00;;;;;;;17.28;43.13;102283.97;5020594;28;20202;-71
2023/04/30 10:36:20;;;;;;;5.00;2.60;;;;;;;17.48;42.09;102272.22;5020932;28;20198;-69
2023/04/30 10:38:46;;;;;;;4.53;2.90;;;;;;;17.27;42.39;102282.22;5024542;28;20226;-72
2023/04/30 10:41:11;;;;;;;8.97;3.87;;;;;;;17.47;42.51;102278.25;5009730;28;20201;-72
2023/04/30 10:43:37;;;;;;;8.40;3.50;;;;;;;17.67;42.78;102281.09;5023982;28;20210;-72
2023/04/30 10:46:03;;;;;;;11.30;4.47;;;;;;;17.38;43.01;102288.44;5024132;28;20598;-72
2023/04/30 10:48:33;;;;;;;9.70;3.47;;;;;;;17.43;41.69;102260.91;5020459;28;20190;-72
2023/04/30 10:51:00;;;;;;;5.23;3.03;;;;;;;17.68;42.15;102264.72;5024790;28;20276;-70
2023/04/30 10:53:30;;;;;;;6.07;3.07;;;;;;;17.70;41.71;102266.47;5021985;28;20202;-70
2023/04/30 10:56:12;;;;;;;9.20;5.43;;;;;;;17.34;41.22;102289.25;5024832;28;20593;-71
2023/04/30 10:58:40;;;;;;;19.07;15.10;;;;;;;16.05;42.79;102296.34;5019305;28;20218;-69
2023/04/30 11:01:07;;;;;;;8.07;3.63;;;;;;;15.27;43.93;102341.00;5027153;28;20205;-70
2023/04/30 11:03:36;;;;;;;7.83;3.10;;;;;;;16.33;43.09;102320.19;5023351;28;20683;-70
2023/04/30 11:06:18;;;;;;;10.30;3.60;;;;;;;15.76;43.68;102297.44;5006611;28;20221;-71
2023/04/30 11:08:45;;;;;;;6.77;3.33;;;;;;;16.91;42.88;102309.22;5019418;28;20217;-71
2023/04/30 11:11:16;;;;;;;9.23;3.40;;;;;;;17.51;43.38;102315.44;5025691;28;20222;-71
2023/04/30 11:13:46;;;;;;;10.83;6.43;;;;;;;17.53;42.05;102265.38;5028948;28;20205;-71
2023/04/30 11:16:12;;;;;;;7.87;4.20;;;;;;;16.74;41.77;102272.72;5029160;28;20206;-70
2023/04/30 11:18:45;;;;;;;5.80;3.17;;;;;;;17.37;41.25;102265.94;5006088;28;20201;-71
2023/04/30 11:21:11;;;;;;;6.70;2.93;;;;;;;17.90;41.01;102240.78;5030865;28;20187;-71
2023/04/30 11:23:42;;;;;;;11.47;6.37;;;;;;;17.42;40.96;102245.34;5026749;28;20210;-71